Time;durP1;ratioP1;P1;durP2;ratioP2;P2;SDS_P1;SDS_P2;PMS_P1;PMS_P2;Temp;Humidity;BMP_temperature;BMP_pressure;BME280_temperature;BME280_humidity;BME280_pressure;Samples;Min_cycle;Max_cycle;Signal;HPM_P1;HPM_P2
2021/10/13 00:01:43;;;;;;;26.67;15.23;;;10.10;99.90;;;;;;6155728;23;20148;-79
2021/10/13 00:04:09;;;;;;;17.00;8.20;;;10.30;99.90;;;;;;6155847;23;20454;-79
2021/10/13 00:06:34;;;;;;;17.63;7.73;;;10.40;99.90;;;;;;6155367;23;20504;-79
2021/10/13 00:09:00;;;;;;;18.63;6.83;;;10.40;99.90;;;;;;6155852;23;20137;-81
2021/10/13 00:11:26;;;;;;;14.73;5.97;;;10.40;99.90;;;;;;6129590;23;20160;-81
2021/10/13 00:13:51;;;;;;;12.73;5.70;;;10.20;99.90;;;;;;6155746;23;20594;-79
2021/10/13 00:16:17;;;;;;;14.67;7.50;;;10.10;99.90;;;;;;6157103;23;20131;-78
2021/10/13 00:18:43;;;;;;;19.90;6.87;;;10.00;99.90;;;;;;6129613;23;20187;-81
2021/10/13 00:21:09;;;;;;;12.30;5.97;;;9.90;99.90;;;;;;6155569;23;20176;-79
2021/10/13 00:23:34;;;;;;;17.27;6.13;;;10.00;99.90;;;;;;6129214;23;20484;-81
2021/10/13 00:26:00;;;;;;;14.60;6.40;;;10.20;99.90;;;;;;6156119;23;20164;-79
2021/10/13 00:28:25;;;;;;;14.67;7.10;;;10.10;99.90;;;;;;6155465;23;20165;-83
2021/10/13 00:30:51;;;;;;;18.63;10.00;;;10.10;99.90;;;;;;6155846;23;20139;-82
2021/10/13 00:33:17;;;;;;;20.17;8.77;;;10.10;99.90;;;;;;6155293;23;20214;-82
2021/10/13 00:35:42;;;;;;;13.43;6.70;;;10.10;99.90;;;;;;6155205;23;20216;-83
2021/10/13 00:38:08;;;;;;;17.33;6.27;;;10.10;99.90;;;;;;6154878;23;20134;-80
2021/10/13 00:40:34;;;;;;;17.43;6.27;;;10.10;99.90;;;;;;6155186;23;20259;-78
2021/10/13 00:42:59;;;;;;;10.60;5.93;;;10.20;99.90;;;;;;6155756;23;20155;-78
2021/10/13 00:45:25;;;;;;;15.33;6.90;;;10.40;99.90;;;;;;6129257;23;20151;-85
2021/10/13 00:47:51;;;;;;;16.10;6.27;;;10.50;99.90;;;;;;6155591;23;20208;-84
2021/10/13 00:50:16;;;;;;;17.17;6.60;;;10.60;99.90;;;;;;6155538;23;20143;-85
2021/10/13 00:52:44;;;;;;;18.20;6.07;;;10.40;99.90;;;;;;6156328;23;20173;-86
2021/10/13 00:55:17;;;;;;;11.67;5.60;;;10.30;99.90;;;;;;6129915;23;20149;-85
2021/10/13 00:57:51;;;;;;;15.90;6.40;;;10.10;99.90;;;;;;6129641;23;20453;-85
2021/10/13 01:00:18;;;;;;;21.67;10.83;;;10.00;99.90;;;;;;6129630;23;20626;-85
2021/10/13 01:02:57;;;;;;;14.87;6.07;;;10.30;99.90;;;;;;6129441;23;20146;-83
2021/10/13 01:05:44;;;;;;;14.87;8.47;;;10.60;99.90;;;;;;6155817;23;20141;-85
2021/10/13 01:08:33;;;;;;;13.27;6.87;;;10.60;99.90;;;;;;6155648;23;20148;-84
2021/10/13 01:11:30;;;;;;;16.47;8.83;;;10.90;99.90;;;;;;6130041;23;20492;-85
2021/10/13 01:14:15;;;;;;;14.40;6.70;;;10.80;99.90;;;;;;6129439;23;20180;-85
2021/10/13 01:16:44;;;;;;;18.77;7.53;;;10.70;99.90;;;;;;6129483;23;20551;-84
2021/10/13 01:19:33;;;;;;;21.83;7.80;;;10.80;99.90;;;;;;6155614;23;20141;-85
2021/10/13 01:22:21;;;;;;;14.23;6.90;;;10.70;99.90;;;;;;6076182;23;20172;-84
2021/10/13 01:25:18;;;;;;;15.70;6.40;;;10.60;99.90;;;;;;6129770;23;20157;-83
2021/10/13 01:27:49;;;;;;;16.40;6.03;;;10.50;99.90;;;;;;6129442;23;20160;-85
2021/10/13 01:30:17;;;;;;;12.13;5.83;;;10.50;99.90;;;;;;6129663;23;20609;-84
2021/10/13 01:32:47;;;;;;;20.03;7.03;;;10.50;99.90;;;;;;6155009;23;20146;-84
2021/10/13 01:35:15;;;;;;;13.27;6.97;;;10.50;99.90;;;;;;6155310;23;20148;-85
2021/10/13 01:37:50;;;;;;;17.00;7.63;;;10.40;99.90;;;;;;6154464;23;20141;-84
2021/10/13 01:40:18;;;;;;;16.67;6.90;;;10.50;99.90;;;;;;6155576;23;20169;-85
2021/10/13 01:42:50;;;;;;;13.93;6.83;;;10.40;99.90;;;;;;6155453;23;20156;-84
2021/10/13 01:45:17;;;;;;;13.27;6.83;;;10.30;99.90;;;;;;6155593;23;20561;-84
2021/10/13 01:47:46;;;;;;;14.73;8.13;;;10.40;99.90;;;;;;6156235;23;20143;-84
2021/10/13 01:50:12;;;;;;;17.23;6.83;;;10.30;99.90;;;;;;6131678;23;20150;-83
2021/10/13 01:52:39;;;;;;;15.60;6.83;;;10.20;99.90;;;;;;6157144;23;20580;-83
2021/10/13 01:55:06;;;;;;;15.40;7.30;;;10.00;99.90;;;;;;6157684;23;20196;-81
2021/10/13 01:57:33;;;;;;;16.23;6.83;;;9.90;99.90;;;;;;6157228;23;20137;-84
2021/10/13 02:00:05;;;;;;;14.13;6.73;;;9.90;99.90;;;;;;6157518;23;20181;-85
2021/10/13 02:02:32;;;;;;;14.23;6.23;;;9.90;99.90;;;;;;6131057;23;20149;-84
2021/10/13 02:04:59;;;;;;;12.87;6.47;;;9.90;99.90;;;;;;6158311;23;20131;-85
2021/10/13 02:07:28;;;;;;;13.27;6.40;;;10.10;99.90;;;;;;6157708;23;20141;-85
2021/10/13 02:09:59;;;;;;;14.73;6.87;;;10.20;99.90;;;;;;6132296;23;20152;-85
2021/10/13 02:12:27;;;;;;;20.20;7.00;;;10.20;99.90;;;;;;6157940;23;20135;-85
2021/10/13 02:14:54;;;;;;;18.47;7.23;;;10.00;99.90;;;;;;6131556;23;20178;-84
2021/10/13 02:17:21;;;;;;;14.87;7.30;;;10.00;99.90;;;;;;6156600;23;20142;-85
2021/10/13 02:19:48;;;;;;;12.63;6.80;;;10.00;99.90;;;;;;6157476;23;20182;-84
2021/10/13 02:22:17;;;;;;;10.73;7.13;;;10.00;99.90;;;;;;6157644;23;20655;-84
2021/10/13 02:24:51;;;;;;;12.80;6.23;;;10.00;99.90;;;;;;6158261;23;20135;-85
2021/10/13 02:27:51;;;;;;;15.57;7.83;;;10.00;99.90;;;;;;6156351;23;20141;-84
2021/10/13 02:30:16;;;;;;;15.57;7.10;;;10.10;99.90;;;;;;6131059;23;20695;-85
2021/10/13 02:32:42;;;;;;;12.47;6.83;;;10.20;99.90;;;;;;6157309;23;20133;-85
2021/10/13 02:35:09;;;;;;;14.70;7.00;;;10.10;99.90;;;;;;6157831;23;20243;-84
2021/10/13 02:37:35;;;;;;;13.40;7.33;;;10.20;99.90;;;;;;6133416;23;20147;-78
2021/10/13 05:17:13;;;;;;;10.67;6.77;;;10.80;99.90;;;;;;6164436;23;20245;-91
2021/10/13 05:20:49;;;;;;;13.23;6.63;;;10.60;99.90;;;;;;6131952;23;20149;-94
2021/10/13 05:23:06;;;;;;;18.20;7.10;;;10.60;99.90;;;;;;6148806;23;20155;-94
2021/10/13 05:25:42;;;;;;;13.33;6.60;;;10.50;99.90;;;;;;6131269;23;20203;-94
2021/10/13 05:28:39;;;;;;;13.33;5.73;;;10.50;99.90;;;;;;6133973;23;20161;-94
2021/10/13 05:31:05;;;;;;;10.20;6.67;;;10.50;99.90;;;;;;6107450;23;20217;-94
2021/10/13 05:33:31;;;;;;;16.43;6.07;;;10.30;99.90;;;;;;6133047;23;20138;-91
2021/10/13 05:35:56;;;;;;;14.23;6.27;;;10.20;99.90;;;;;;6133440;23;20146;-91
2021/10/13 05:38:33;;;;;;;12.77;5.97;;;10.30;99.90;;;;;;6133307;23;20149;-92
2021/10/13 05:41:00;;;;;;;21.33;6.30;;;10.30;99.90;;;;;;6132951;23;20232;-92
2021/10/13 05:43:26;;;;;;;12.03;6.20;;;10.30;99.90;;;;;;6132965;23;20145;-95
2021/10/13 05:45:52;;;;;;;14.53;6.40;;;10.30;99.90;;;;;;6135110;23;20159;-92
2021/10/13 12:13:27;;;;;;;8.80;2.97;;;17.80;99.90;;;;;;6173089;23;20226;-83
2021/10/13 12:15:59;;;;;;;5.80;2.60;;;17.80;99.90;;;;;;6156074;23;20148;-84
2021/10/13 12:18:27;;;;;;;13.50;3.00;;;17.70;99.90;;;;;;6130015;23;20214;-84
2021/10/13 12:21:07;;;;;;;8.43;2.67;;;17.60;99.90;;;;;;6130062;23;20149;-84
2021/10/13 12:23:39;;;;;;;6.80;3.00;;;17.50;99.90;;;;;;6130360;23;20176;-84
2021/10/13 12:26:14;;;;;;;10.03;3.03;;;17.50;99.90;;;;;;6155439;23;20150;-85
2021/10/13 12:28:41;;;;;;;9.10;3.00;;;17.60;99.90;;;;;;6130118;23;20187;-84
2021/10/13 12:31:16;;;;;;;6.87;2.60;;;17.60;99.90;;;;;;6129978;23;20186;-84
2021/10/13 12:33:46;;;;;;;7.07;3.13;;;17.50;99.90;;;;;;6129716;23;20158;-84
2021/10/13 12:36:18;;;;;;;4.67;2.90;;;17.50;99.90;;;;;;6129684;23;20171;-84
2021/10/13 12:38:47;;;;;;;10.17;2.53;;;17.40;99.90;;;;;;6129858;23;20210;-84
2021/10/13 12:41:13;;;;;;;7.00;2.90;;;17.40;99.90;;;;;;6129660;23;20158;-84
2021/10/13 12:43:45;;;;;;;9.43;3.00;;;17.20;99.90;;;;;;6129794;23;20213;-84
2021/10/13 12:46:17;;;;;;;7.77;2.43;;;17.30;99.90;;;;;;6130089;23;20157;-84
2021/10/13 12:48:43;;;;;;;7.07;2.07;;;17.20;99.90;;;;;;6129736;23;20147;-83
2021/10/13 12:51:12;;;;;;;4.80;2.00;;;17.10;99.90;;;;;;6129825;23;20190;-83
2021/10/13 12:53:38;;;;;;;7.07;2.20;;;16.90;99.90;;;;;;6129599;23;20148;-84
2021/10/13 12:56:06;;;;;;;7.03;2.17;;;16.80;99.90;;;;;;6129982;23;20154;-84
2021/10/13 12:58:33;;;;;;;6.87;2.30;;;16.70;99.90;;;;;;6129700;23;20520;-83
2021/10/13 13:00:58;;;;;;;6.70;2.50;;;16.60;99.90;;;;;;6155136;23;20561;-84
2021/10/13 13:03:25;;;;;;;8.43;2.33;;;16.60;99.90;;;;;;6129518;23;20178;-84
2021/10/13 13:05:51;;;;;;;6.70;2.40;;;17.20;99.90;;;;;;6129479;23;20147;-84
2021/10/13 13:08:18;;;;;;;6.73;2.10;;;17.90;99.90;;;;;;6129410;23;20253;-84
2021/10/13 13:10:44;;;;;;;8.10;2.20;;;18.40;99.90;;;;;;6129549;23;20184;-83
2021/10/13 13:13:10;;;;;;;8.80;2.07;;;18.50;99.90;;;;;;6128787;23;20196;-84
2021/10/13 13:15:36;;;;;;;7.07;2.20;;;18.30;99.90;;;;;;6129504;23;20156;-84
2021/10/13 13:18:04;;;;;;;12.07;2.47;;;18.20;99.90;;;;;;6130077;23;20160;-84
2021/10/13 13:20:29;;;;;;;8.47;2.13;;;18.10;99.90;;;;;;6129611;23;20589;-84
2021/10/13 13:22:55;;;;;;;10.73;2.67;;;17.90;99.90;;;;;;6129578;23;20172;-84
2021/10/13 13:25:21;;;;;;;7.77;2.57;;;17.90;99.90;;;;;;6129101;23;20467;-84
2021/10/13 13:27:47;;;;;;;4.87;2.37;;;17.90;99.90;;;;;;6129840;23;20183;-84
2021/10/13 13:30:12;;;;;;;8.53;2.80;;;17.90;99.90;;;;;;6155327;23;20168;-84
2021/10/13 13:32:38;;;;;;;5.97;2.73;;;18.10;99.90;;;;;;6129879;23;20156;-84
2021/10/13 13:35:06;;;;;;;7.87;2.47;;;18.30;99.90;;;;;;6129554;23;20582;-83
2021/10/13 13:37:32;;;;;;;6.67;2.20;;;18.90;99.90;;;;;;6128527;23;20165;-84
2021/10/13 13:39:58;;;;;;;9.07;2.70;;;19.20;99.90;;;;;;6129584;23;20229;-84
2021/10/13 13:42:24;;;;;;;10.03;2.47;;;19.40;99.90;;;;;;6129895;23;20162;-83
2021/10/13 13:44:50;;;;;;;7.73;3.57;;;19.60;99.90;;;;;;6131467;23;20146;-84
2021/10/13 13:47:15;;;;;;;6.30;2.20;;;19.80;99.90;;;;;;6131927;23;20512;-84
2021/10/13 13:49:41;;;;;;;9.00;2.20;;;19.90;99.90;;;;;;6131447;23;20591;-84
2021/10/13 13:52:07;;;;;;;10.03;2.60;;;19.80;99.40;;;;;;6131407;23;20177;-84
2021/10/13 13:54:33;;;;;;;9.80;2.40;;;19.50;99.00;;;;;;6132012;23;20579;-84
2021/10/13 13:56:59;;;;;;;12.20;2.90;;;19.40;99.30;;;;;;6131907;23;20153;-84
2021/10/13 13:59:25;;;;;;;5.47;2.63;;;19.60;99.40;;;;;;6131361;23;20146;-84
2021/10/13 14:01:51;;;;;;;6.60;2.37;;;20.80;98.10;;;;;;6131583;23;20155;-84
2021/10/13 14:04:17;;;;;;;5.63;2.27;;;21.60;96.80;;;;;;6131454;23;20156;-85
2021/10/13 14:06:42;;;;;;;7.27;2.30;;;21.50;96.70;;;;;;6130690;23;20149;-84
2021/10/13 14:09:08;;;;;;;6.77;2.07;;;21.20;95.80;;;;;;6131544;23;20648;-84
2021/10/13 14:11:34;;;;;;;5.60;1.70;;;20.70;96.40;;;;;;6131351;23;20186;-85
2021/10/13 14:14:00;;;;;;;13.00;2.53;;;20.20;95.60;;;;;;6130801;23;20172;-84
2021/10/13 14:16:26;;;;;;;6.40;2.10;;;19.50;96.80;;;;;;6131002;23;20219;-84
2021/10/13 14:18:52;;;;;;;5.67;1.73;;;19.00;97.50;;;;;;6131710;23;20228;-84
2021/10/13 14:21:18;;;;;;;8.13;2.57;;;18.70;97.00;;;;;;6131041;23;20153;-84
2021/10/13 14:23:43;;;;;;;10.43;2.60;;;18.40;98.10;;;;;;6131333;23;20145;-84
2021/10/13 14:26:09;;;;;;;3.73;1.70;;;18.10;98.80;;;;;;6130976;23;20151;-84
2021/10/13 14:28:35;;;;;;;3.87;1.83;;;17.80;98.10;;;;;;6130772;23;20214;-83
2021/10/13 14:31:03;;;;;;;7.70;1.83;;;17.40;98.70;;;;;;6131492;23;20220;-84
2021/10/13 14:33:29;;;;;;;6.57;1.77;;;17.10;99.00;;;;;;6131583;23;20160;-84
2021/10/13 14:35:54;;;;;;;7.20;1.50;;;17.00;99.30;;;;;;6131136;23;20239;-84
2021/10/13 14:38:20;;;;;;;8.23;1.80;;;16.80;99.40;;;;;;6131702;23;20150;-84
2021/10/13 14:40:46;;;;;;;6.90;1.70;;;16.70;99.90;;;;;;6131146;23;20197;-83
2021/10/13 14:43:12;;;;;;;3.00;1.57;;;16.70;99.90;;;;;;6130906;23;20204;-84
2021/10/13 14:45:37;;;;;;;3.37;1.10;;;16.60;99.90;;;;;;6130756;23;20165;-83
2021/10/13 14:48:03;;;;;;;4.23;0.80;;;16.70;99.90;;;;;;6131268;23;20633;-84
2021/10/13 14:50:29;;;;;;;4.90;1.53;;;16.70;99.10;;;;;;6130498;23;20719;-83
2021/10/13 14:52:55;;;;;;;4.27;1.00;;;16.60;99.10;;;;;;6130179;23;20145;-83
2021/10/13 14:55:21;;;;;;;7.63;1.37;;;16.60;99.10;;;;;;6130392;23;20168;-83
2021/10/13 14:57:47;;;;;;;3.87;1.00;;;16.70;99.20;;;;;;6130891;23;20143;-83
2021/10/13 15:00:13;;;;;;;4.80;1.00;;;17.00;99.20;;;;;;6131776;23;20231;-85
2021/10/13 15:02:39;;;;;;;3.63;0.87;;;17.90;97.80;;;;;;6130740;23;20147;-84
2021/10/13 15:05:05;;;;;;;3.07;1.10;;;18.60;96.90;;;;;;6130428;23;20144;-83
2021/10/13 15:07:30;;;;;;;2.70;1.10;;;18.90;96.20;;;;;;6130592;23;20195;-84
2021/10/13 15:09:56;;;;;;;2.60;0.93;;;18.80;96.50;;;;;;6130927;23;20191;-84
2021/10/13 15:12:23;;;;;;;7.43;1.20;;;18.70;96.80;;;;;;6130621;23;20157;-83
2021/10/13 15:14:49;;;;;;;2.87;1.03;;;18.50;96.60;;;;;;6130795;23;20172;-84
2021/10/13 15:17:14;;;;;;;4.67;1.07;;;18.40;97.10;;;;;;6131061;23;20151;-84
2021/10/13 15:19:40;;;;;;;3.60;0.97;;;18.30;97.20;;;;;;6129751;23;20150;-84
2021/10/13 15:22:06;;;;;;;7.57;1.13;;;18.40;97.10;;;;;;6130154;23;20141;-84
2021/10/13 15:24:34;;;;;;;5.27;0.97;;;18.60;97.30;;;;;;6130705;23;20163;-84
2021/10/13 15:27:04;;;;;;;6.10;1.37;;;19.00;97.20;;;;;;6130798;23;20168;-84
2021/10/13 15:29:30;;;;;;;4.30;1.00;;;19.50;96.60;;;;;;6130034;23;20252;-85
2021/10/13 15:31:56;;;;;;;5.43;1.20;;;20.20;96.10;;;;;;6130616;23;20279;-84
2021/10/13 15:34:23;;;;;;;4.83;1.17;;;20.60;95.00;;;;;;6130445;23;20229;-85
2021/10/13 15:36:50;;;;;;;5.27;1.23;;;20.80;94.50;;;;;;6129878;23;20164;-84
2021/10/13 15:39:18;;;;;;;4.53;0.97;;;21.20;94.30;;;;;;6130699;23;20145;-84
2021/10/13 15:41:44;;;;;;;5.57;0.93;;;21.10;93.40;;;;;;6130497;23;20197;-85
2021/10/13 15:44:11;;;;;;;5.30;1.23;;;21.10;93.40;;;;;;6158336;23;20158;-85
2021/10/13 15:46:38;;;;;;;4.53;1.40;;;21.20;92.90;;;;;;6130177;23;20202;-84
2021/10/13 15:49:06;;;;;;;3.93;1.20;;;21.20;93.30;;;;;;6130038;23;20144;-85
2021/10/13 15:51:33;;;;;;;2.80;0.90;;;21.20;93.10;;;;;;6130652;23;20277;-85
2021/10/13 15:53:59;;;;;;;3.17;1.03;;;21.20;92.70;;;;;;6129297;23;20204;-85
2021/10/13 15:56:25;;;;;;;6.20;1.20;;;20.70;92.80;;;;;;6130562;23;20169;-85
2021/10/13 15:58:52;;;;;;;7.20;1.60;;;20.00;93.60;;;;;;6130031;23;20141;-84
2021/10/13 16:01:18;;;;;;;8.03;1.33;;;19.70;94.00;;;;;;6121421;23;20578;-85
2021/10/13 16:03:45;;;;;;;5.73;1.40;;;19.40;94.50;;;;;;6129284;23;20150;-85
2021/10/13 16:06:10;;;;;;;11.07;1.57;;;19.10;95.00;;;;;;6130044;23;20244;-85
2021/10/13 16:08:37;;;;;;;2.00;1.10;;;18.70;95.80;;;;;;6131678;23;20602;-85
2021/10/13 16:11:05;;;;;;;8.20;1.57;;;18.60;96.10;;;;;;6131807;23;20198;-85
2021/10/13 16:13:30;;;;;;;3.73;1.10;;;18.50;96.50;;;;;;6129177;23;20172;-85
2021/10/13 16:15:56;;;;;;;3.00;1.07;;;18.30;95.80;;;;;;6129265;23;20168;-84
2021/10/13 16:18:22;;;;;;;4.23;1.20;;;18.00;96.30;;;;;;6129564;23;20191;-85
2021/10/13 16:20:49;;;;;;;5.67;1.43;;;17.80;96.70;;;;;;6129755;23;20571;-85
2021/10/13 16:23:15;;;;;;;4.27;1.10;;;17.50;97.10;;;;;;6129899;23;20155;-85
2021/10/13 16:25:41;;;;;;;6.27;1.30;;;17.40;97.40;;;;;;6130119;23;20591;-84
2021/10/13 16:28:06;;;;;;;5.20;1.07;;;17.20;97.60;;;;;;6130272;23;20182;-85
2021/10/13 16:30:32;;;;;;;4.90;1.27;;;17.20;98.20;;;;;;6128633;23;20190;-85
2021/10/13 16:32:58;;;;;;;4.70;1.30;;;17.00;98.60;;;;;;6127579;23;20574;-83
2021/10/13 16:35:24;;;;;;;8.10;1.70;;;16.90;98.70;;;;;;6128337;23;20147;-84
2021/10/13 16:37:49;;;;;;;8.37;1.70;;;16.90;98.70;;;;;;6129104;23;20154;-82
2021/10/13 16:40:15;;;;;;;5.43;1.57;;;16.90;99.00;;;;;;6129519;23;20151;-83
2021/10/13 16:42:40;;;;;;;5.67;1.20;;;16.80;99.30;;;;;;6129841;23;20165;-82
2021/10/13 16:45:07;;;;;;;4.30;1.30;;;16.80;98.90;;;;;;6129808;23;20164;-82
2021/10/13 16:47:33;;;;;;;4.37;1.03;;;16.80;98.90;;;;;;6105842;23;20156;-83
2021/10/13 16:49:58;;;;;;;5.90;1.23;;;16.60;99.90;;;;;;6130571;23;20534;-85
2021/10/13 16:52:24;;;;;;;3.53;1.30;;;16.60;99.80;;;;;;6131720;23;20174;-85
2021/10/13 16:54:50;;;;;;;5.57;1.40;;;16.60;99.60;;;;;;6135278;23;20146;-83
2021/10/13 16:57:16;;;;;;;9.93;1.60;;;16.40;99.90;;;;;;6153716;23;20186;-83
2021/10/13 16:59:41;;;;;;;6.17;1.50;;;16.30;99.90;;;;;;6150754;23;20138;-84
2021/10/13 17:02:08;;;;;;;4.80;1.40;;;16.20;99.90;;;;;;6147361;23;20203;-83
2021/10/13 17:04:33;;;;;;;4.13;1.43;;;16.20;99.90;;;;;;6176623;23;20167;-84
2021/10/13 17:06:59;;;;;;;6.53;1.87;;;16.40;99.90;;;;;;6148875;23;20145;-83
2021/10/13 17:09:25;;;;;;;7.00;1.27;;;16.20;99.90;;;;;;6152756;23;20135;-83
2021/10/13 17:11:51;;;;;;;7.23;1.60;;;16.20;99.90;;;;;;6150538;23;20185;-83
2021/10/13 17:14:17;;;;;;;5.43;1.37;;;16.20;99.90;;;;;;6149479;23;20170;-82
2021/10/13 17:16:43;;;;;;;2.20;1.40;;;16.10;99.90;;;;;;6151866;23;20147;-84
2021/10/13 17:19:09;;;;;;;5.40;1.47;;;15.80;99.90;;;;;;6141019;23;20545;-82
2021/10/13 17:21:35;;;;;;;5.60;1.40;;;15.80;99.90;;;;;;6134161;23;20152;-82
2021/10/13 17:24:01;;;;;;;6.20;1.90;;;15.90;99.90;;;;;;6133691;23;20155;-84
2021/10/13 17:26:26;;;;;;;6.43;1.53;;;15.90;99.90;;;;;;6131389;23;20580;-83
2021/10/13 17:28:52;;;;;;;4.77;1.40;;;15.70;99.90;;;;;;6132881;23;20238;-82
2021/10/13 17:31:18;;;;;;;8.67;1.60;;;15.70;99.90;;;;;;6133034;23;20196;-82
2021/10/13 17:33:44;;;;;;;4.57;1.73;;;15.60;99.90;;;;;;6134589;23;20138;-83
2021/10/13 17:36:09;;;;;;;9.43;1.87;;;15.70;99.90;;;;;;6162967;23;20174;-84
2021/10/13 17:38:35;;;;;;;5.00;1.87;;;15.70;99.90;;;;;;6134057;23;20145;-83
2021/10/13 17:41:01;;;;;;;5.07;1.60;;;15.60;99.90;;;;;;6134166;23;20165;-81
2021/10/13 17:43:27;;;;;;;5.30;1.80;;;15.50;99.90;;;;;;6160601;23;20154;-83
2021/10/13 17:45:52;;;;;;;7.60;1.97;;;15.30;99.90;;;;;;6132907;23;20161;-82
2021/10/13 17:48:18;;;;;;;9.57;2.13;;;15.50;99.90;;;;;;6132779;23;20160;-81
2021/10/13 17:50:49;;;;;;;7.43;2.30;;;15.40;99.90;;;;;;6131696;23;20184;-82
2021/10/13 17:53:16;;;;;;;6.83;2.47;;;15.50;99.90;;;;;;6132528;23;20213;-82
2021/10/13 17:55:42;;;;;;;11.47;2.87;;;15.80;99.90;;;;;;6133098;23;20475;-82
2021/10/13 17:58:08;;;;;;;4.33;2.50;;;15.80;99.90;;;;;;6133322;23;20152;-82
2021/10/13 18:00:35;;;;;;;9.07;5.17;;;15.90;99.90;;;;;;6129624;23;20167;-82
2021/10/13 18:03:03;;;;;;;5.77;2.37;;;15.60;99.90;;;;;;6131061;23;20209;-80
2021/10/13 18:05:28;;;;;;;6.73;2.20;;;15.50;99.90;;;;;;6131776;23;20185;-83
2021/10/13 18:07:54;;;;;;;7.27;2.23;;;15.30;99.90;;;;;;6132919;23;20151;-82
2021/10/13 18:10:20;;;;;;;8.13;2.10;;;15.00;99.90;;;;;;6131933;23;20186;-82
2021/10/13 18:12:45;;;;;;;6.17;2.90;;;15.00;99.90;;;;;;6131690;23;20169;-82
2021/10/13 18:15:11;;;;;;;6.90;2.00;;;15.00;99.90;;;;;;6132877;23;20169;-83
2021/10/13 18:17:37;;;;;;;7.97;2.40;;;14.90;99.90;;;;;;6131288;23;20156;-82
2021/10/13 18:20:06;;;;;;;8.67;2.30;;;14.90;99.90;;;;;;6132252;23;20161;-84
2021/10/13 18:22:32;;;;;;;9.67;2.50;;;14.90;99.90;;;;;;6131527;23;20154;-83
2021/10/13 18:24:57;;;;;;;6.57;2.30;;;14.80;99.90;;;;;;6130289;23;20152;-81
2021/10/13 18:27:23;;;;;;;8.20;2.00;;;14.70;99.90;;;;;;6156809;23;20143;-83
2021/10/13 18:29:49;;;;;;;5.00;1.80;;;14.60;99.90;;;;;;6131502;23;20160;-82
2021/10/13 18:32:16;;;;;;;8.20;2.30;;;14.60;99.90;;;;;;6131701;23;20237;-83
2021/10/13 18:34:43;;;;;;;10.87;2.10;;;14.60;99.90;;;;;;6132959;23;20218;-82
2021/10/13 18:37:09;;;;;;;9.03;3.03;;;14.50;99.90;;;;;;6131129;23;20160;-82
2021/10/13 18:39:34;;;;;;;7.43;2.40;;;14.80;99.90;;;;;;6130357;23;20490;-83
2021/10/13 18:42:00;;;;;;;5.47;2.10;;;14.50;99.90;;;;;;6130296;23;20216;-83
2021/10/13 18:44:26;;;;;;;7.03;2.43;;;14.30;99.90;;;;;;6130686;23;20169;-83
2021/10/13 18:46:51;;;;;;;12.07;3.30;;;14.20;99.90;;;;;;6132809;23;20152;-83
2021/10/13 18:49:17;;;;;;;8.83;2.60;;;14.40;99.90;;;;;;6133775;23;20648;-83
2021/10/13 18:51:43;;;;;;;7.80;3.30;;;14.20;99.90;;;;;;6132548;23;20193;-83
2021/10/13 18:54:08;;;;;;;5.80;2.53;;;14.00;99.90;;;;;;6129805;23;20473;-83
2021/10/13 18:56:34;;;;;;;6.20;3.10;;;14.00;99.90;;;;;;6130099;23;20182;-83
2021/10/13 18:59:00;;;;;;;7.73;4.43;;;13.90;99.90;;;;;;6130520;23;20151;-83
2021/10/13 19:01:25;;;;;;;15.27;6.40;;;14.00;99.90;;;;;;6131616;23;20455;-83
2021/10/13 19:03:51;;;;;;;10.07;5.13;;;14.40;99.90;;;;;;6135759;23;20142;-82
2021/10/13 19:06:17;;;;;;;10.67;4.77;;;14.60;99.90;;;;;;6136954;23;20164;-83
2021/10/13 19:08:42;;;;;;;9.17;5.07;;;14.50;99.90;;;;;;6134974;23;20154;-83
2021/10/13 19:11:08;;;;;;;13.20;5.30;;;14.40;99.90;;;;;;6133804;23;20616;-83
2021/10/13 19:13:34;;;;;;;10.30;4.63;;;14.50;99.90;;;;;;6130319;23;20521;-83
2021/10/13 19:15:59;;;;;;;17.40;4.90;;;14.50;99.90;;;;;;6130605;23;20157;-82
2021/10/13 19:18:25;;;;;;;13.07;5.33;;;14.30;99.90;;;;;;6130270;23;20467;-84
2021/10/13 19:20:50;;;;;;;12.80;4.73;;;14.20;99.90;;;;;;6130990;23;20154;-81
2021/10/13 19:23:16;;;;;;;10.10;4.87;;;14.10;99.90;;;;;;6129953;23;20147;-81
2021/10/13 19:25:43;;;;;;;11.50;5.07;;;14.20;99.90;;;;;;6133145;23;20163;-81
2021/10/13 19:28:09;;;;;;;12.63;4.67;;;14.10;99.90;;;;;;6135772;23;20169;-82
2021/10/13 19:30:35;;;;;;;12.07;5.17;;;14.00;99.90;;;;;;6132914;23;20596;-82
2021/10/13 19:33:01;;;;;;;9.73;4.77;;;14.30;99.90;;;;;;6158585;23;20154;-84
2021/10/13 19:35:27;;;;;;;14.23;6.80;;;14.30;99.90;;;;;;6133330;23;20171;-81
2021/10/13 19:37:56;;;;;;;79.17;44.50;;;14.20;99.90;;;;;;6134193;23;20154;-84
2021/10/13 19:40:22;;;;;;;38.07;24.27;;;14.20;99.90;;;;;;6133177;23;20177;-81
2021/10/13 19:42:48;;;;;;;26.40;16.57;;;13.90;99.90;;;;;;6134634;23;20240;-82
2021/10/13 19:45:14;;;;;;;28.40;20.57;;;14.10;99.90;;;;;;6133836;23;20157;-81
2021/10/13 19:47:40;;;;;;;23.07;13.50;;;14.20;99.90;;;;;;6160576;23;20161;-82
2021/10/13 19:50:08;;;;;;;13.60;8.50;;;14.20;99.90;;;;;;6135146;23;20141;-82
2021/10/13 19:52:34;;;;;;;15.23;9.57;;;14.10;99.90;;;;;;6133777;23;20482;-81
2021/10/13 19:55:00;;;;;;;12.17;7.10;;;14.00;99.90;;;;;;6132649;23;20141;-82
2021/10/13 19:57:26;;;;;;;15.80;6.53;;;14.10;99.90;;;;;;6132046;23;20646;-81
2021/10/13 19:59:52;;;;;;;10.50;4.67;;;13.90;99.90;;;;;;6130972;23;20154;-82
2021/10/13 20:02:18;;;;;;;10.90;4.67;;;13.90;99.90;;;;;;6132267;23;20155;-81
2021/10/13 20:04:44;;;;;;;16.43;7.50;;;13.90;99.90;;;;;;6158495;23;20137;-81
2021/10/13 20:07:10;;;;;;;10.97;6.40;;;13.90;99.90;;;;;;6132883;23;20138;-82
2021/10/13 20:09:37;;;;;;;12.67;5.80;;;13.90;99.90;;;;;;6133176;23;20237;-82
2021/10/13 20:12:13;;;;;;;16.33;11.87;;;13.80;99.90;;;;;;6135395;23;20192;-82
2021/10/13 20:14:39;;;;;;;18.87;10.27;;;13.90;99.90;;;;;;6133392;23;20216;-81
2021/10/13 20:17:05;;;;;;;19.80;12.10;;;13.90;99.90;;;;;;6133028;23;20203;-81
2021/10/13 20:19:31;;;;;;;19.70;10.10;;;13.90;99.90;;;;;;6133281;23;20175;-82
2021/10/13 20:21:57;;;;;;;9.13;6.73;;;13.90;99.90;;;;;;6159100;23;20143;-84
2021/10/13 20:24:22;;;;;;;22.93;17.83;;;13.90;99.90;;;;;;6133602;23;20160;-83
2021/10/13 20:26:48;;;;;;;13.53;6.47;;;14.00;99.90;;;;;;6135956;23;20227;-82
2021/10/13 20:29:15;;;;;;;12.10;6.30;;;14.00;99.90;;;;;;6132419;23;20165;-83
2021/10/13 20:31:40;;;;;;;12.40;5.60;;;14.00;99.90;;;;;;6133547;23;20188;-84
2021/10/13 20:34:07;;;;;;;11.00;4.60;;;14.00;99.90;;;;;;6157820;23;20134;-83
2021/10/13 20:36:33;;;;;;;21.17;12.77;;;13.80;99.90;;;;;;6132702;23;20232;-84
2021/10/13 20:39:06;;;;;;;20.97;12.93;;;14.00;99.90;;;;;;6131682;23;20172;-84
2021/10/13 20:41:37;;;;;;;13.83;8.57;;;14.00;99.90;;;;;;6134190;23;20185;-82
2021/10/13 20:44:09;;;;;;;18.20;8.87;;;13.90;99.90;;;;;;6134138;23;20196;-82
2021/10/13 20:46:38;;;;;;;31.60;20.87;;;13.90;99.90;;;;;;6133544;23;20190;-82
2021/10/13 20:49:08;;;;;;;11.33;7.17;;;14.00;99.90;;;;;;6159369;23;20135;-82
2021/10/13 20:51:35;;;;;;;12.17;7.07;;;13.90;99.90;;;;;;6134022;23;20188;-82
2021/10/13 20:54:01;;;;;;;10.10;4.87;;;13.90;99.90;;;;;;6158582;23;20166;-82
2021/10/13 20:56:27;;;;;;;10.57;6.00;;;13.90;99.90;;;;;;6135639;23;20610;-81
2021/10/13 20:58:54;;;;;;;15.07;6.27;;;13.80;99.90;;;;;;6134297;23;20150;-82
2021/10/13 21:01:20;;;;;;;9.53;4.23;;;13.80;99.90;;;;;;6132290;23;20195;-83
2021/10/13 21:03:46;;;;;;;14.03;8.87;;;14.10;99.90;;;;;;6132794;23;20144;-84
2021/10/13 21:06:12;;;;;;;7.00;4.00;;;14.00;99.90;;;;;;6132516;23;20174;-83
2021/10/13 21:08:38;;;;;;;11.20;4.50;;;14.10;99.90;;;;;;6132688;23;20220;-84
2021/10/13 21:11:04;;;;;;;9.73;4.77;;;14.20;99.90;;;;;;6133003;23;20620;-82
2021/10/13 21:13:29;;;;;;;10.13;5.13;;;14.00;99.90;;;;;;6132902;23;20169;-84
2021/10/13 21:15:55;;;;;;;13.73;10.47;;;13.90;99.90;;;;;;6160198;23;20478;-82
2021/10/13 21:18:21;;;;;;;31.20;17.93;;;14.00;99.90;;;;;;6160807;23;20437;-82
2021/10/13 21:20:46;;;;;;;12.10;4.20;;;13.90;99.90;;;;;;6129332;23;20145;-82
2021/10/13 21:23:12;;;;;;;9.10;4.10;;;14.00;99.90;;;;;;6155643;23;20141;-82
2021/10/13 21:25:42;;;;;;;11.20;5.00;;;13.90;99.90;;;;;;6137995;23;20154;-82
2021/10/13 21:28:08;;;;;;;10.23;6.37;;;13.90;99.90;;;;;;6138027;23;20180;-82
2021/10/13 21:30:35;;;;;;;15.40;5.63;;;14.00;99.90;;;;;;6138110;23;20619;-82
2021/10/13 21:33:02;;;;;;;10.77;4.93;;;14.10;99.90;;;;;;6164503;23;20182;-82
2021/10/13 21:35:28;;;;;;;11.87;5.20;;;14.00;99.90;;;;;;6137526;23;20233;-82
2021/10/13 21:37:55;;;;;;;11.73;5.03;;;14.00;99.90;;;;;;6139083;23;20240;-85
2021/10/13 21:40:21;;;;;;;10.07;5.20;;;13.90;99.90;;;;;;6135930;23;20186;-82
2021/10/13 21:42:47;;;;;;;14.87;5.20;;;13.90;99.90;;;;;;6130994;23;20176;-81
2021/10/13 21:45:15;;;;;;;19.63;7.57;;;13.90;99.90;;;;;;6128460;23;20154;-82